Time;durP1;ratioP1;P1;durP2;ratioP2;P2;SDS_P1;SDS_P2;PMS_P1;PMS_P2;Temp;Humidity;BMP_temperature;BMP_pressure;BME280_temperature;BME280_humidity;BME280_pressure;Samples;Min_cycle;Max_cycle;Signal;HPM_P1;HPM_P2
2023/08/12 00:01:05;;;;;;;23.48;15.20;;;;;;;;;;5065153;28;20220;-81
2023/08/12 00:03:31;;;;;;;26.08;16.00;;;;;;;;;;5046062;28;20469;-82
2023/08/12 00:06:00;;;;;;;22.60;14.98;;;;;;;;;;5046902;28;20175;-81
2023/08/12 00:08:26;;;;;;;21.60;15.35;;;;;;;;;;5052892;28;20180;-81
2023/08/12 00:10:52;;;;;;;22.00;16.45;;;;;;;;;;5049461;28;20214;-81
2023/08/12 00:13:18;;;;;;;19.63;14.43;;;;;;;;;;5036647;28;20176;-81
2023/08/12 00:15:45;;;;;;;20.55;15.30;;;;;;;;;;5054627;28;20172;-81
2023/08/12 00:18:11;;;;;;;18.40;15.25;;;;;;;;;;5051022;28;20186;-82
2023/08/12 00:20:37;;;;;;;16.73;14.27;;;;;;;;;;5049289;28;20176;-82
2023/08/12 00:23:04;;;;;;;20.92;17.33;;;;;;;;;;5032158;28;20419;-82
2023/08/12 00:25:30;;;;;;;24.08;16.10;;;;;;;;;;5055938;28;20178;-82
2023/08/12 00:27:56;;;;;;;20.13;15.60;;;;;;;;;;5069046;28;20205;-82
2023/08/12 00:30:22;;;;;;;24.02;16.70;;;;;;;;;;5036785;28;20418;-82
2023/08/12 00:32:48;;;;;;;23.92;18.05;;;;;;;;;;5059212;28;20414;-81
2023/08/12 00:35:14;;;;;;;21.42;17.73;;;;;;;;;;5047230;28;20435;-82
2023/08/12 00:37:40;;;;;;;25.45;17.95;;;;;;;;;;5052155;28;20415;-82
2023/08/12 00:40:07;;;;;;;24.07;18.60;;;;;;;;;;5055986;28;20425;-82
2023/08/12 00:42:33;;;;;;;22.45;16.20;;;;;;;;;;5056382;28;20215;-82
2023/08/12 00:44:59;;;;;;;24.85;18.38;;;;;;;;;;5069549;28;20466;-82
2023/08/12 00:47:25;;;;;;;22.98;16.95;;;;;;;;;;5055990;28;20221;-82
2023/08/12 00:49:53;;;;;;;25.65;19.23;;;;;;;;;;5061831;28;20467;-82
2023/08/12 00:52:19;;;;;;;23.98;17.17;;;;;;;;;;5069236;28;20172;-82
2023/08/12 00:54:45;;;;;;;26.63;16.92;;;;;;;;;;5052577;28;20180;-82
2023/08/12 00:57:12;;;;;;;22.65;18.20;;;;;;;;;;5038601;28;20215;-82
2023/08/12 00:59:38;;;;;;;26.70;17.45;;;;;;;;;;5055392;28;20229;-83
2023/08/12 01:02:07;;;;;;;21.80;17.07;;;;;;;;;;5045714;28;20215;-82
2023/08/12 01:04:35;;;;;;;22.95;18.55;;;;;;;;;;5032049;28;20202;-82
2023/08/12 01:07:01;;;;;;;26.48;18.73;;;;;;;;;;5032208;28;20196;-82
2023/08/12 01:09:27;;;;;;;26.20;19.38;;;;;;;;;;5030252;28;20181;-82
2023/08/12 01:11:58;;;;;;;31.08;20.08;;;;;;;;;;5048919;28;20180;-83
2023/08/12 01:14:36;;;;;;;24.85;20.50;;;;;;;;;;5029379;28;20259;-82
2023/08/12 01:17:04;;;;;;;28.80;21.33;;;;;;;;;;5044676;28;20242;-82
2023/08/12 01:19:37;;;;;;;30.63;21.60;;;;;;;;;;5049328;28;20203;-82
2023/08/12 01:22:04;;;;;;;31.27;20.93;;;;;;;;;;5026214;28;20213;-82
2023/08/12 01:24:37;;;;;;;27.40;20.43;;;;;;;;;;5030999;28;20180;-82
2023/08/12 01:27:06;;;;;;;31.23;20.08;;;;;;;;;;5025230;28;20276;-83
2023/08/12 01:29:35;;;;;;;21.80;19.48;;;;;;;;;;5028059;28;20177;-82
2023/08/12 01:32:06;;;;;;;27.90;20.37;;;;;;;;;;5059223;28;20180;-82
2023/08/12 01:34:32;;;;;;;29.70;21.10;;;;;;;;;;5032154;28;20183;-82
2023/08/12 01:36:59;;;;;;;27.92;21.17;;;;;;;;;;5029458;28;20203;-82
2023/08/12 01:39:27;;;;;;;23.08;20.48;;;;;;;;;;5023163;28;20177;-82
2023/08/12 01:41:54;;;;;;;27.33;20.30;;;;;;;;;;5047651;28;20291;-82
2023/08/12 01:44:20;;;;;;;25.75;21.40;;;;;;;;;;5010324;28;20173;-82
2023/08/12 01:46:46;;;;;;;27.70;20.87;;;;;;;;;;5036357;28;20180;-82
2023/08/12 01:49:12;;;;;;;27.73;21.05;;;;;;;;;;5028868;28;20176;-82
2023/08/12 01:51:38;;;;;;;28.43;21.87;;;;;;;;;;5035749;28;20233;-82
2023/08/12 01:54:04;;;;;;;29.47;21.90;;;;;;;;;;5027681;28;20191;-82
2023/08/12 01:56:30;;;;;;;29.38;22.83;;;;;;;;;;5025258;28;20182;-82
2023/08/12 01:58:56;;;;;;;29.60;22.13;;;;;;;;;;5023547;28;20235;-82
2023/08/12 02:01:22;;;;;;;25.27;20.53;;;;;;;;;;5049820;28;20234;-82
2023/08/12 02:03:48;;;;;;;28.17;22.63;;;;;;;;;;5055369;28;20183;-82
2023/08/12 02:06:14;;;;;;;30.05;22.58;;;;;;;;;;5052755;28;20180;-82
2023/08/12 02:08:40;;;;;;;30.25;22.17;;;;;;;;;;5041901;28;20173;-82
2023/08/12 02:11:06;;;;;;;30.13;21.95;;;;;;;;;;5031978;28;20187;-82
2023/08/12 02:13:32;;;;;;;30.50;23.17;;;;;;;;;;5065271;28;20177;-82
2023/08/12 02:15:58;;;;;;;29.33;22.23;;;;;;;;;;5048425;28;20187;-82
2023/08/12 02:18:24;;;;;;;27.13;22.53;;;;;;;;;;5031747;28;20203;-82
2023/08/12 02:20:51;;;;;;;29.23;22.73;;;;;;;;;;5034879;28;20194;-82
2023/08/12 02:23:17;;;;;;;31.98;22.92;;;;;;;;;;5057617;28;20203;-82
2023/08/12 02:25:43;;;;;;;29.77;23.40;;;;;;;;;;5073485;28;20230;-82
2023/08/12 02:28:09;;;;;;;28.55;23.02;;;;;;;;;;5058407;28;20187;-82
2023/08/12 02:30:37;;;;;;;27.92;22.27;;;;;;;;;;5058206;28;20186;-82
2023/08/12 02:33:03;;;;;;;28.25;22.83;;;;;;;;;;5068151;28;20184;-82
2023/08/12 02:35:29;;;;;;;28.88;23.55;;;;;;;;;;5037573;28;20187;-82
2023/08/12 02:37:56;;;;;;;28.27;23.10;;;;;;;;;;5040889;28;20187;-82
2023/08/12 02:40:22;;;;;;;28.42;23.52;;;;;;;;;;5057887;28;20283;-82
2023/08/12 02:42:48;;;;;;;29.52;23.33;;;;;;;;;;5036681;28;20207;-81
2023/08/12 02:45:14;;;;;;;28.38;23.58;;;;;;;;;;5032136;28;20188;-82
2023/08/12 02:47:40;;;;;;;32.50;25.45;;;;;;;;;;5038588;28;20195;-82
2023/08/12 02:50:07;;;;;;;32.78;25.48;;;;;;;;;;5057992;28;20266;-82
2023/08/12 02:52:33;;;;;;;32.38;25.13;;;;;;;;;;5037248;28;20192;-82
2023/08/12 02:54:59;;;;;;;38.20;27.57;;;;;;;;;;5057736;28;20183;-82
2023/08/12 02:57:28;;;;;;;34.58;27.13;;;;;;;;;;5037122;28;20218;-82
2023/08/12 02:59:54;;;;;;;34.25;26.67;;;;;;;;;;5056696;28;20231;-82
2023/08/12 03:02:20;;;;;;;35.38;26.73;;;;;;;;;;5041035;28;20294;-82
2023/08/12 03:04:46;;;;;;;35.83;28.00;;;;;;;;;;5056174;28;20210;-82
2023/08/12 03:07:12;;;;;;;32.60;27.93;;;;;;;;;;5057279;28;20184;-82
2023/08/12 03:09:38;;;;;;;33.43;27.50;;;;;;;;;;5035223;28;20264;-82
2023/08/12 03:12:04;;;;;;;37.00;27.57;;;;;;;;;;5048902;28;20215;-83
2023/08/12 03:14:30;;;;;;;36.77;28.53;;;;;;;;;;5033158;28;20206;-82
2023/08/12 03:16:56;;;;;;;41.27;33.40;;;;;;;;;;5023361;28;20423;-82
2023/08/12 03:19:22;;;;;;;38.30;29.53;;;;;;;;;;5057144;28;20195;-82
2023/08/12 03:21:49;;;;;;;41.33;30.73;;;;;;;;;;5038053;28;20217;-82
2023/08/12 03:24:15;;;;;;;38.47;30.53;;;;;;;;;;5037395;28;20176;-82
2023/08/12 03:26:41;;;;;;;41.97;32.47;;;;;;;;;;5035757;28;20415;-82
2023/08/12 03:29:07;;;;;;;43.10;31.77;;;;;;;;;;5037421;28;20172;-82
2023/08/12 03:31:33;;;;;;;40.47;31.17;;;;;;;;;;5043425;28;20183;-82
2023/08/12 03:33:59;;;;;;;40.90;30.73;;;;;;;;;;5056609;28;20273;-82
2023/08/12 03:36:25;;;;;;;45.53;33.17;;;;;;;;;;5054013;28;20286;-82
2023/08/12 03:38:53;;;;;;;42.27;32.77;;;;;;;;;;5056794;28;20275;-82
2023/08/12 03:41:19;;;;;;;41.33;33.97;;;;;;;;;;5051326;28;20204;-82
2023/08/12 03:43:45;;;;;;;44.93;33.33;;;;;;;;;;5038132;28;20173;-82
2023/08/12 03:46:11;;;;;;;46.30;33.37;;;;;;;;;;5010923;28;20184;-82
2023/08/12 03:48:37;;;;;;;42.90;32.93;;;;;;;;;;5030113;28;20235;-82
2023/08/12 03:51:03;;;;;;;39.87;32.17;;;;;;;;;;5026071;28;20180;-82
2023/08/12 03:53:29;;;;;;;44.67;32.70;;;;;;;;;;5023548;28;20172;-82
2023/08/12 03:55:55;;;;;;;45.17;33.30;;;;;;;;;;5019076;28;20191;-82
2023/08/12 03:58:21;;;;;;;40.30;32.27;;;;;;;;;;5046195;28;20278;-82
2023/08/12 04:00:47;;;;;;;40.63;31.40;;;;;;;;;;5054112;28;20187;-82
2023/08/12 04:03:13;;;;;;;41.57;31.87;;;;;;;;;;5054075;28;20229;-81
2023/08/12 04:05:47;;;;;;;39.33;32.10;;;;;;;;;;5054066;28;20187;-82
2023/08/12 04:08:13;;;;;;;39.70;32.10;;;;;;;;;;5047358;28;20179;-82
2023/08/12 04:10:39;;;;;;;38.23;31.57;;;;;;;;;;5039765;28;20178;-81
2023/08/12 04:13:08;;;;;;;36.60;30.13;;;;;;;;;;5056557;28;20182;-82
2023/08/12 04:15:34;;;;;;;34.27;28.20;;;;;;;;;;5045832;28;20176;-82
2023/08/12 04:18:00;;;;;;;37.77;30.73;;;;;;;;;;5055588;28;20176;-82
2023/08/12 04:20:26;;;;;;;35.80;29.60;;;;;;;;;;5055781;28;20183;-82
2023/08/12 04:22:54;;;;;;;36.97;30.00;;;;;;;;;;5055844;28;20253;-82
2023/08/12 04:25:21;;;;;;;35.80;29.53;;;;;;;;;;5054009;28;20267;-82
2023/08/12 04:27:48;;;;;;;36.17;28.50;;;;;;;;;;5047402;28;20175;-82
2023/08/12 04:30:14;;;;;;;37.60;29.87;;;;;;;;;;5046401;28;20233;-82
2023/08/12 04:32:40;;;;;;;40.27;28.37;;;;;;;;;;5048686;28;20180;-82
2023/08/12 04:35:06;;;;;;;40.00;28.47;;;;;;;;;;5036018;28;20242;-82
2023/08/12 04:37:32;;;;;;;35.47;28.83;;;;;;;;;;5037924;28;20223;-82
2023/08/12 04:39:58;;;;;;;33.93;28.60;;;;;;;;;;5043773;28;20183;-82
2023/08/12 04:42:24;;;;;;;39.77;30.37;;;;;;;;;;5052178;28;20211;-82
2023/08/12 04:44:51;;;;;;;37.13;30.43;;;;;;;;;;5047918;28;20183;-82
2023/08/12 04:47:17;;;;;;;35.13;30.43;;;;;;;;;;5041915;28;20180;-82
2023/08/12 04:49:45;;;;;;;39.07;32.37;;;;;;;;;;5035999;28;20172;-82
2023/08/12 04:52:11;;;;;;;40.00;32.37;;;;;;;;;;5055381;28;20273;-82
2023/08/12 04:54:37;;;;;;;41.33;32.33;;;;;;;;;;5053501;28;20192;-82
2023/08/12 04:57:03;;;;;;;39.50;32.73;;;;;;;;;;5049820;28;20195;-83
2023/08/12 04:59:31;;;;;;;38.17;31.77;;;;;;;;;;5047327;28;20239;-82
2023/08/12 05:01:57;;;;;;;39.77;32.23;;;;;;;;;;5053254;28;20207;-82
2023/08/12 05:04:23;;;;;;;39.10;31.77;;;;;;;;;;5047669;28;20186;-82
2023/08/12 05:06:49;;;;;;;40.33;31.73;;;;;;;;;;5055243;28;20182;-82
2023/08/12 05:09:15;;;;;;;39.23;30.70;;;;;;;;;;5055447;28;20179;-82
2023/08/12 05:11:42;;;;;;;38.47;31.63;;;;;;;;;;5055468;28;20186;-82
2023/08/12 05:14:08;;;;;;;39.97;31.13;;;;;;;;;;5026750;28;20234;-82
2023/08/12 05:16:34;;;;;;;42.97;32.80;;;;;;;;;;5053100;28;20187;-82
2023/08/12 05:19:00;;;;;;;40.90;32.10;;;;;;;;;;5048423;28;20253;-82
2023/08/12 05:21:26;;;;;;;41.53;33.03;;;;;;;;;;5047171;28;20231;-82
2023/08/12 05:23:52;;;;;;;39.80;32.37;;;;;;;;;;5056461;28;20180;-82
2023/08/12 05:26:20;;;;;;;41.40;33.23;;;;;;;;;;5036086;28;20191;-82
2023/08/12 05:28:48;;;;;;;40.00;31.20;;;;;;;;;;5036612;28;20180;-82
2023/08/12 05:31:14;;;;;;;41.30;32.80;;;;;;;;;;5036382;28;20176;-82
2023/08/12 05:33:40;;;;;;;39.17;31.93;;;;;;;;;;5055878;28;20206;-82
2023/08/12 05:36:06;;;;;;;44.50;33.03;;;;;;;;;;5039975;28;20199;-82
2023/08/12 05:38:32;;;;;;;41.57;32.83;;;;;;;;;;5038446;28;20184;-82
2023/08/12 05:41:03;;;;;;;39.47;32.30;;;;;;;;;;5019992;28;20279;-83
2023/08/12 05:43:29;;;;;;;44.77;31.97;;;;;;;;;;5039977;28;20191;-83
2023/08/12 05:45:55;;;;;;;41.67;31.60;;;;;;;;;;5037963;28;20176;-82
2023/08/12 05:48:21;;;;;;;41.33;31.27;;;;;;;;;;5025522;28;20183;-82
2023/08/12 05:50:47;;;;;;;43.07;30.43;;;;;;;;;;5037142;28;20195;-82
2023/08/12 05:53:14;;;;;;;32.83;27.63;;;;;;;;;;5022297;28;20184;-82
2023/08/12 05:55:40;;;;;;;34.87;25.63;;;;;;;;;;5022253;28;20234;-82
2023/08/12 05:58:06;;;;;;;31.10;23.83;;;;;;;;;;5022792;28;20225;-82
2023/08/12 06:00:32;;;;;;;31.37;23.67;;;;;;;;;;5065933;28;20218;-83
2023/08/12 06:02:58;;;;;;;26.07;21.33;;;;;;;;;;5036384;28;20204;-83
2023/08/12 06:05:24;;;;;;;28.40;21.30;;;;;;;;;;5056017;28;20168;-84
2023/08/12 06:07:50;;;;;;;28.97;20.90;;;;;;;;;;5022709;28;20180;-83
2023/08/12 06:10:16;;;;;;;27.43;19.60;;;;;;;;;;5055848;28;20176;-83
2023/08/12 06:12:42;;;;;;;28.50;20.40;;;;;;;;;;5038724;28;20179;-84
2023/08/12 06:15:08;;;;;;;24.90;19.73;;;;;;;;;;5036127;28;20191;-83
2023/08/12 06:17:34;;;;;;;23.63;18.93;;;;;;;;;;5075647;28;20205;-84
2023/08/12 06:20:01;;;;;;;30.17;19.70;;;;;;;;;;5063218;28;20225;-83
2023/08/12 06:22:27;;;;;;;27.30;19.67;;;;;;;;;;5037386;28;20207;-84
2023/08/12 06:24:55;;;;;;;30.10;19.80;;;;;;;;;;5069878;28;20180;-83
2023/08/12 06:27:21;;;;;;;30.07;19.63;;;;;;;;;;5021935;28;20274;-83
2023/08/12 06:29:47;;;;;;;24.73;17.83;;;;;;;;;;5025136;28;20179;-83
2023/08/12 06:32:14;;;;;;;18.47;15.60;;;;;;;;;;5044074;28;20188;-83
2023/08/12 06:34:43;;;;;;;18.33;13.63;;;;;;;;;;5038538;28;20186;-83
2023/08/12 06:37:09;;;;;;;16.13;11.83;;;;;;;;;;5064588;28;20261;-83
2023/08/12 06:39:35;;;;;;;14.53;9.80;;;;;;;;;;5027201;28;20195;-82
2023/08/12 06:42:03;;;;;;;18.00;9.90;;;;;;;;;;5072215;28;20196;-83
2023/08/12 06:44:29;;;;;;;13.77;8.30;;;;;;;;;;5027207;28;20271;-82
2023/08/12 06:46:55;;;;;;;13.77;8.50;;;;;;;;;;5054160;28;20271;-83
2023/08/12 06:49:21;;;;;;;12.93;8.70;;;;;;;;;;5068790;28;20176;-83
2023/08/12 06:51:50;;;;;;;13.70;9.93;;;;;;;;;;5059105;28;20187;-84
2023/08/12 06:54:16;;;;;;;14.07;10.20;;;;;;;;;;5053861;28;20184;-83
2023/08/12 06:56:42;;;;;;;15.73;10.87;;;;;;;;;;5043611;28;20195;-83
2023/08/12 06:59:11;;;;;;;17.30;11.37;;;;;;;;;;5063845;28;20272;-85
2023/08/12 07:01:37;;;;;;;16.20;12.00;;;;;;;;;;5057184;28;20302;-84
2023/08/12 07:04:03;;;;;;;18.50;12.23;;;;;;;;;;5075052;28;20168;-83
2023/08/12 07:06:31;;;;;;;18.93;13.50;;;;;;;;;;5054433;28;20168;-83
2023/08/12 07:08:57;;;;;;;17.07;12.67;;;;;;;;;;5040860;28;20179;-84
2023/08/12 07:11:23;;;;;;;18.57;12.73;;;;;;;;;;5056838;28;20171;-84
2023/08/12 07:13:49;;;;;;;15.63;12.90;;;;;;;;;;5050555;28;20164;-84
2023/08/12 07:16:18;;;;;;;17.07;12.87;;;;;;;;;;5059364;28;20176;-83
2023/08/12 07:18:44;;;;;;;18.03;12.93;;;;;;;;;;5055545;28;20206;-85
2023/08/12 07:21:10;;;;;;;18.53;13.63;;;;;;;;;;5041078;28;20183;-84
2023/08/12 07:23:36;;;;;;;17.40;13.17;;;;;;;;;;5057959;28;20171;-89
2023/08/12 07:26:05;;;;;;;21.83;14.07;;;;;;;;;;5045136;28;20176;-87
2023/08/12 07:28:31;;;;;;;19.20;13.63;;;;;;;;;;5054053;28;20239;-89
2023/08/12 07:30:57;;;;;;;20.00;13.93;;;;;;;;;;5057442;28;20171;-88
2023/08/12 07:33:26;;;;;;;18.27;14.03;;;;;;;;;;5056994;28;20183;-87
2023/08/12 07:36:13;;;;;;;18.27;14.87;;;;;;;;;;5067742;28;20222;-86
2023/08/12 07:38:39;;;;;;;19.70;15.63;;;;;;;;;;5071687;28;20269;-88
2023/08/12 07:41:05;;;;;;;19.60;15.10;;;;;;;;;;5077533;28;20171;-87
2023/08/12 07:43:34;;;;;;;16.70;12.57;;;;;;;;;;5048687;28;20184;-89
2023/08/12 07:46:01;;;;;;;17.23;11.67;;;;;;;;;;5044436;28;20184;-87
2023/08/12 07:48:27;;;;;;;15.53;10.50;;;;;;;;;;5048789;28;20202;-88
2023/08/12 07:51:10;;;;;;;15.17;9.57;;;;;;;;;;5070912;28;20172;-88
2023/08/12 07:53:37;;;;;;;11.20;8.57;;;;;;;;;;5072478;28;20179;-90
2023/08/12 07:56:10;;;;;;;11.07;8.70;;;;;;;;;;5056036;28;20188;-87
2023/08/12 07:58:36;;;;;;;12.33;8.13;;;;;;;;;;5049844;28;20176;-87
2023/08/12 08:01:04;;;;;;;11.47;7.27;;;;;;;;;;5048346;28;20182;-88
2023/08/12 08:03:31;;;;;;;7.77;6.63;;;;;;;;;;5056508;28;20182;-86
2023/08/12 08:05:57;;;;;;;10.20;6.40;;;;;;;;;;5073225;28;20183;-84
2023/08/12 08:08:23;;;;;;;9.83;6.20;;;;;;;;;;5065534;28;20210;-85
2023/08/12 08:10:51;;;;;;;9.40;6.63;;;;;;;;;;5053255;28;20176;-86
2023/08/12 08:13:17;;;;;;;7.07;5.63;;;;;;;;;;5053340;28;20176;-85
2023/08/12 08:15:43;;;;;;;8.70;6.10;;;;;;;;;;5036564;28;20187;-84
2023/08/12 08:18:12;;;;;;;7.50;4.77;;;;;;;;;;5053273;28;20188;-84
2023/08/12 08:20:38;;;;;;;6.43;4.80;;;;;;;;;;5036927;28;20188;-84
2023/08/12 08:23:04;;;;;;;6.13;4.30;;;;;;;;;;5052942;28;20212;-84
2023/08/12 08:25:30;;;;;;;6.03;4.47;;;;;;;;;;5053096;28;20180;-85
2023/08/12 08:27:56;;;;;;;5.50;4.60;;;;;;;;;;5052943;28;20183;-84
2023/08/12 08:30:24;;;;;;;5.93;4.80;;;;;;;;;;5052860;28;20310;-85
2023/08/12 08:32:50;;;;;;;6.00;4.87;;;;;;;;;;5053111;28;20191;-85
2023/08/12 08:35:16;;;;;;;5.43;4.60;;;;;;;;;;5036225;28;20282;-84
2023/08/12 08:37:42;;;;;;;5.97;4.57;;;;;;;;;;5052965;28;20239;-84
2023/08/12 08:40:09;;;;;;;9.53;4.67;;;;;;;;;;5052876;28;20190;-84
2023/08/12 08:42:35;;;;;;;7.13;4.93;;;;;;;;;;5052717;28;20274;-84
2023/08/12 08:45:02;;;;;;;5.40;4.87;;;;;;;;;;5053244;28;20176;-85
2023/08/12 08:47:31;;;;;;;5.47;4.70;;;;;;;;;;5052771;28;20226;-85
2023/08/12 08:49:57;;;;;;;5.57;5.00;;;;;;;;;;5052252;28;20187;-85
2023/08/12 08:52:26;;;;;;;5.67;5.07;;;;;;;;;;5052536;28;20184;-85
2023/08/12 08:54:53;;;;;;;5.83;5.23;;;;;;;;;;5052675;28;20188;-85
2023/08/12 08:57:19;;;;;;;6.60;5.40;;;;;;;;;;5052611;28;20176;-86
2023/08/12 08:59:45;;;;;;;5.90;5.30;;;;;;;;;;5052553;28;20244;-86
2023/08/12 09:02:17;;;;;;;6.47;5.60;;;;;;;;;;5052524;28;20252;-85
2023/08/12 09:04:44;;;;;;;7.00;5.47;;;;;;;;;;5052610;28;20187;-85
2023/08/12 09:07:16;;;;;;;6.33;5.73;;;;;;;;;;5052364;28;20184;-85
2023/08/12 09:09:45;;;;;;;5.43;4.93;;;;;;;;;;5052480;28;20172;-86
2023/08/12 09:12:13;;;;;;;5.20;4.80;;;;;;;;;;5052339;28;20176;-85
2023/08/12 09:14:39;;;;;;;5.47;4.97;;;;;;;;;;5052323;28;20243;-85
2023/08/12 09:17:07;;;;;;;5.17;4.73;;;;;;;;;;5052616;28;20184;-86
2023/08/12 09:19:34;;;;;;;5.70;5.20;;;;;;;;;;5052638;28;20272;-85
2023/08/12 09:22:00;;;;;;;4.60;4.20;;;;;;;;;;5052259;28;20290;-84
2023/08/12 09:24:26;;;;;;;5.10;4.60;;;;;;;;;;5052538;28;20265;-85
2023/08/12 09:26:58;;;;;;;5.00;4.50;;;;;;;;;;5052471;28;20172;-85
2023/08/12 09:29:29;;;;;;;4.90;4.50;;;;;;;;;;5052627;28;20242;-85
2023/08/12 09:32:05;;;;;;;5.30;4.80;;;;;;;;;;5052467;28;20184;-84
2023/08/12 09:34:31;;;;;;;7.13;5.50;;;;;;;;;;5052641;28;20184;-84
2023/08/12 09:36:57;;;;;;;5.10;4.70;;;;;;;;;;5052522;28;20204;-85
2023/08/12 09:39:23;;;;;;;4.40;4.10;;;;;;;;;;5052641;28;20179;-85
2023/08/12 09:41:50;;;;;;;4.00;3.70;;;;;;;;;;5052043;28;20199;-85
2023/08/12 09:44:16;;;;;;;2.97;2.77;;;;;;;;;;5052557;28;20176;-85
2023/08/12 09:46:42;;;;;;;3.23;2.20;;;;;;;;;;5052114;28;20176;-85
2023/08/12 09:49:11;;;;;;;1.90;1.80;;;;;;;;;;5052416;28;20176;-85
2023/08/12 09:51:39;;;;;;;2.47;1.70;;;;;;;;;;5052401;28;20176;-86
2023/08/12 09:54:05;;;;;;;1.60;1.50;;;;;;;;;;5051168;28;20283;-84
2023/08/12 09:56:37;;;;;;;1.93;1.43;;;;;;;;;;5035591;28;20184;-85
2023/08/12 09:59:05;;;;;;;1.53;1.43;;;;;;;;;;5051355;28;20232;-85
2023/08/12 10:01:34;;;;;;;1.50;1.40;;;;;;;;;;5053350;28;20207;-85
2023/08/12 10:04:01;;;;;;;1.60;1.50;;;;;;;;;;5055699;28;20180;-86
2023/08/12 10:06:27;;;;;;;1.60;1.42;;;;;;;;;;5055685;28;20176;-85
2023/08/12 10:08:54;;;;;;;1.40;1.30;;;;;;;;;;5055512;28;20253;-85
2023/08/12 10:11:20;;;;;;;1.60;1.50;;;;;;;;;;5055683;28;20178;-85
2023/08/12 10:13:47;;;;;;;1.63;1.50;;;;;;;;;;5055509;28;20192;-85
2023/08/12 10:16:16;;;;;;;2.17;1.60;;;;;;;;;;5055753;28;20275;-85
2023/08/12 10:18:42;;;;;;;2.63;1.70;;;;;;;;;;5055469;28;20198;-85
2023/08/12 10:21:19;;;;;;;2.05;1.85;;;;;;;;;;5055104;28;20425;-85
2023/08/12 10:23:46;;;;;;;1.55;1.45;;;;;;;;;;5054851;28;20404;-84
2023/08/12 10:26:15;;;;;;;1.40;1.30;;;;;;;;;;5055649;28;20206;-85
2023/08/12 10:28:41;;;;;;;1.70;1.60;;;;;;;;;;5055571;28;20208;-85
2023/08/12 10:31:07;;;;;;;2.28;1.40;;;;;;;;;;5055321;28;20168;-85
2023/08/12 10:33:41;;;;;;;1.88;1.42;;;;;;;;;;5055341;28;20180;-84
2023/08/12 10:36:07;;;;;;;1.38;1.27;;;;;;;;;;5055212;28;20196;-85
2023/08/12 10:38:34;;;;;;;1.50;1.40;;;;;;;;;;5055462;28;20179;-85
2023/08/12 10:41:22;;;;;;;1.50;1.40;;;;;;;;;;5055235;28;20194;-86
2023/08/12 10:43:57;;;;;;;2.03;1.40;;;;;;;;;;5055187;28;20164;-85
2023/08/12 10:46:23;;;;;;;1.65;1.55;;;;;;;;;;5055364;28;20172;-86
2023/08/12 10:49:01;;;;;;;1.92;1.83;;;;;;;;;;5055162;28;20263;-86
2023/08/12 10:51:46;;;;;;;4.07;2.22;;;;;;;;;;5055183;28;20222;-86
2023/08/12 10:54:18;;;;;;;2.63;2.15;;;;;;;;;;5054969;28;20270;-86
2023/08/12 10:57:05;;;;;;;2.17;1.98;;;;;;;;;;5055019;28;20183;-85
2023/08/12 10:59:47;;;;;;;3.78;2.03;;;;;;;;;;5054968;28;20298;-84
2023/08/12 11:02:21;;;;;;;3.13;2.33;;;;;;;;;;5054748;28;20271;-86
2023/08/12 11:05:04;;;;;;;3.13;2.00;;;;;;;;;;5053694;28;20419;-84
2023/08/12 11:07:34;;;;;;;2.72;2.50;;;;;;;;;;5053862;28;20491;-87
2023/08/12 11:10:04;;;;;;;3.43;2.53;;;;;;;;;;5054023;28;20487;-86
2023/08/12 11:12:31;;;;;;;2.90;2.10;;;;;;;;;;5053615;28;20416;-85
2023/08/12 11:15:01;;;;;;;2.22;1.73;;;;;;;;;;5054233;28;20179;-85
2023/08/12 11:17:35;;;;;;;2.55;1.70;;;;;;;;;;5053860;28;20400;-84
2023/08/12 11:20:04;;;;;;;4.80;2.10;;;;;;;;;;5053501;28;20411;-85
2023/08/12 11:22:34;;;;;;;2.92;1.90;;;;;;;;;;5053547;28;20459;-84
2023/08/12 11:25:01;;;;;;;2.25;1.70;;;;;;;;;;5054663;28;20415;-85
2023/08/12 11:27:27;;;;;;;3.20;1.90;;;;;;;;;;5054122;28;20195;-84
2023/08/12 11:29:53;;;;;;;3.30;1.80;;;;;;;;;;5054073;28;20400;-84
2023/08/12 11:32:20;;;;;;;3.40;1.90;;;;;;;;;;5053127;28;20408;-85
2023/08/12 11:34:46;;;;;;;3.60;1.80;;;;;;;;;;5053344;28;20415;-84
2023/08/12 11:37:12;;;;;;;2.95;1.70;;;;;;;;;;5053557;28;20483;-85
2023/08/12 11:39:39;;;;;;;3.42;1.88;;;;;;;;;;5036502;28;20412;-87
2023/08/12 11:42:07;;;;;;;2.72;1.73;;;;;;;;;;5054048;28;20289;-86
2023/08/12 11:44:34;;;;;;;3.88;1.92;;;;;;;;;;5053130;28;20415;-86
2023/08/12 11:47:00;;;;;;;6.93;2.10;;;;;;;;;;5054058;28;20246;-85
2023/08/12 11:49:26;;;;;;;3.80;2.10;;;;;;;;;;5052585;28;20408;-85
2023/08/12 11:51:52;;;;;;;2.83;1.90;;;;;;;;;;5053559;28;20245;-85
2023/08/12 11:54:18;;;;;;;5.18;1.60;;;;;;;;;;5054038;28;20225;-85
2023/08/12 11:56:44;;;;;;;5.25;2.03;;;;;;;;;;5053093;28;20444;-84
2023/08/12 11:59:16;;;;;;;4.70;2.08;;;;;;;;;;5052629;28;20431;-84
2023/08/12 12:01:48;;;;;;;3.85;2.22;;;;;;;;;;5036399;28;20485;-86
2023/08/12 12:04:15;;;;;;;4.78;2.30;;;;;;;;;;5052734;28;20450;-85
2023/08/12 12:06:44;;;;;;;6.67;2.50;;;;;;;;;;5052482;28;20414;-86
2023/08/12 12:09:10;;;;;;;5.05;2.20;;;;;;;;;;5052274;28;20403;-84
2023/08/12 12:11:37;;;;;;;4.32;2.30;;;;;;;;;;5052263;28;20404;-86
2023/08/12 12:14:06;;;;;;;6.03;2.33;;;;;;;;;;5052506;28;20420;-85
2023/08/12 12:16:42;;;;;;;4.82;2.35;;;;;;;;;;5052337;28;20495;-85
2023/08/12 12:19:16;;;;;;;6.53;2.50;;;;;;;;;;5052662;28;20437;-85
2023/08/12 12:21:45;;;;;;;4.82;2.28;;;;;;;;;;5052415;28;20427;-85
2023/08/12 12:24:12;;;;;;;4.60;2.30;;;;;;;;;;5052431;28;20423;-84
2023/08/12 12:26:41;;;;;;;4.95;2.30;;;;;;;;;;5052123;28;20415;-84
2023/08/12 12:29:07;;;;;;;4.90;2.50;;;;;;;;;;5052956;28;20404;-84
2023/08/12 12:31:34;;;;;;;5.40;2.53;;;;;;;;;;5052107;28;20439;-86
2023/08/12 12:34:05;;;;;;;7.50;2.78;;;;;;;;;;5052412;28;20449;-84
2023/08/12 12:36:32;;;;;;;4.88;2.30;;;;;;;;;;5052181;28;20487;-85
2023/08/12 12:38:58;;;;;;;5.68;2.40;;;;;;;;;;5052250;28;20498;-85
2023/08/12 12:41:24;;;;;;;6.15;2.67;;;;;;;;;;5051842;28;20427;-84
2023/08/12 12:43:50;;;;;;;5.05;2.47;;;;;;;;;;5051910;28;20407;-84
2023/08/12 12:46:16;;;;;;;5.25;2.40;;;;;;;;;;5052429;28;20400;-84
2023/08/12 12:48:45;;;;;;;5.80;2.80;;;;;;;;;;5051780;28;20486;-85
2023/08/12 12:51:12;;;;;;;6.82;2.60;;;;;;;;;;5052206;28;20526;-85
2023/08/12 12:53:38;;;;;;;6.53;2.80;;;;;;;;;;5051797;28;20400;-84
2023/08/12 12:56:04;;;;;;;7.28;2.80;;;;;;;;;;5052131;28;20462;-84
2023/08/12 12:58:34;;;;;;;8.07;3.30;;;;;;;;;;5052090;28;20400;-84
2023/08/12 13:01:06;;;;;;;6.03;2.90;;;;;;;;;;5054961;28;20422;-85
2023/08/12 13:03:32;;;;;;;6.00;2.92;;;;;;;;;;5054989;28;20422;-85
2023/08/12 13:05:58;;;;;;;5.67;2.67;;;;;;;;;;5055278;28;20414;-84
2023/08/12 13:08:27;;;;;;;5.17;2.50;;;;;;;;;;5055159;28;20399;-85
2023/08/12 13:10:53;;;;;;;6.25;2.80;;;;;;;;;;5055131;28;20410;-84
2023/08/12 13:13:19;;;;;;;6.20;2.63;;;;;;;;;;5055238;28;20407;-83
2023/08/12 13:15:45;;;;;;;6.80;2.70;;;;;;;;;;5054777;28;20419;-85
2023/08/12 13:18:12;;;;;;;6.13;2.60;;;;;;;;;;5054985;28;20470;-84
2023/08/12 13:20:38;;;;;;;5.15;2.30;;;;;;;;;;5056440;28;20410;-84
2023/08/12 13:23:04;;;;;;;6.32;2.78;;;;;;;;;;5055693;28;20430;-84
2023/08/12 13:25:34;;;;;;;9.02;2.97;;;;;;;;;;5039106;28;20403;-85
2023/08/12 13:28:01;;;;;;;7.05;3.20;;;;;;;;;;5055569;28;20405;-85
2023/08/12 13:30:27;;;;;;;6.22;3.05;;;;;;;;;;5054924;28;20406;-85
2023/08/12 13:32:53;;;;;;;8.70;3.20;;;;;;;;;;5054680;28;20439;-84
2023/08/12 13:35:19;;;;;;;5.75;2.72;;;;;;;;;;5038565;28;20418;-85
2023/08/12 13:37:45;;;;;;;6.93;2.70;;;;;;;;;;5058422;28;20402;-85
2023/08/12 13:40:11;;;;;;;8.53;3.00;;;;;;;;;;5058662;28;20544;-84
2023/08/12 13:42:38;;;;;;;7.43;2.77;;;;;;;;;;5058583;28;20520;-84
2023/08/12 13:45:04;;;;;;;8.30;2.90;;;;;;;;;;5059917;28;20521;-84
2023/08/12 13:47:31;;;;;;;6.13;2.90;;;;;;;;;;5060303;28;20410;-85
2023/08/12 13:49:57;;;;;;;8.02;2.65;;;;;;;;;;5058636;28;20410;-83
2023/08/12 13:52:23;;;;;;;8.60;3.03;;;;;;;;;;5058781;28;20488;-85
2023/08/12 13:54:49;;;;;;;7.35;2.88;;;;;;;;;;5058728;28;20410;-84
2023/08/12 13:57:15;;;;;;;7.93;2.83;;;;;;;;;;5058526;28;20411;-84
2023/08/12 13:59:43;;;;;;;6.55;2.80;;;;;;;;;;5054981;28;20436;-85
2023/08/12 14:02:12;;;;;;;7.82;2.90;;;;;;;;;;5039010;28;20470;-85
2023/08/12 14:04:38;;;;;;;6.93;2.80;;;;;;;;;;5038657;28;20404;-84
2023/08/12 14:07:04;;;;;;;7.35;2.75;;;;;;;;;;5054771;28;20408;-84
2023/08/12 14:09:33;;;;;;;8.00;2.85;;;;;;;;;;5055091;28;20410;-85
2023/08/12 14:11:59;;;;;;;6.47;2.80;;;;;;;;;;5038336;28;20416;-85
2023/08/12 14:14:29;;;;;;;6.30;2.53;;;;;;;;;;5054574;28;20396;-84
2023/08/12 14:16:57;;;;;;;6.22;2.85;;;;;;;;;;5054795;28;20412;-85
2023/08/12 14:19:26;;;;;;;6.85;2.63;;;;;;;;;;5054895;28;20474;-85
2023/08/12 14:21:55;;;;;;;8.43;2.90;;;;;;;;;;5038193;28;20435;-84
2023/08/12 14:24:21;;;;;;;5.63;2.47;;;;;;;;;;5054420;28;20404;-84
2023/08/12 14:26:47;;;;;;;6.03;2.20;;;;;;;;;;5054718;28;20404;-84
2023/08/12 14:29:16;;;;;;;6.13;2.60;;;;;;;;;;5054534;28;20408;-84